Time;durP1;ratioP1;P1;durP2;ratioP2;P2;SDS_P1;SDS_P2;PMS_P1;PMS_P2;Temp;Humidity;BMP_temperature;BMP_pressure;BME280_temperature;BME280_humidity;BME280_pressure;Samples;Min_cycle;Max_cycle;Signal;HPM_P1;HPM_P2
2021/05/26 00:02:18;;;;;;;2.80;1.50;;;11.50;99.90;;;;;;5038000;28;20210;-80
2021/05/26 00:04:43;;;;;;;3.80;0.70;;;11.50;99.90;;;;;;5019526;28;20507;-79
2021/05/26 00:07:09;;;;;;;1.30;0.83;;;11.50;99.90;;;;;;5038036;28;20209;-79
2021/05/26 00:09:34;;;;;;;2.73;0.73;;;11.60;99.90;;;;;;5038420;28;20224;-80
2021/05/26 00:12:00;;;;;;;2.37;0.87;;;11.50;99.90;;;;;;5037750;28;20236;-79
2021/05/26 00:14:26;;;;;;;3.37;0.80;;;11.60;99.90;;;;;;5020501;28;20640;-79
2021/05/26 00:16:51;;;;;;;1.97;0.80;;;11.60;99.90;;;;;;5037225;28;20204;-79
2021/05/26 00:19:17;;;;;;;0.83;0.83;;;11.60;99.90;;;;;;5037744;28;20185;-78
2021/05/26 00:21:43;;;;;;;6.23;1.13;;;11.60;99.90;;;;;;5035660;28;20217;-80
2021/05/26 00:24:09;;;;;;;1.83;1.00;;;11.60;99.90;;;;;;5035465;28;20197;-79
2021/05/26 00:26:34;;;;;;;1.20;0.60;;;11.60;99.90;;;;;;5035205;28;20205;-79
2021/05/26 00:29:00;;;;;;;1.33;0.70;;;11.60;99.90;;;;;;5035616;28;20850;-78
2021/05/26 00:31:26;;;;;;;6.37;0.60;;;11.60;99.90;;;;;;5035235;28;20176;-79
2021/05/26 00:33:52;;;;;;;2.00;0.80;;;11.60;99.90;;;;;;5034735;28;20647;-79
2021/05/26 00:36:18;;;;;;;1.00;0.70;;;11.60;99.90;;;;;;5035608;28;20189;-77
2021/05/26 00:38:43;;;;;;;1.83;0.97;;;11.60;99.90;;;;;;5035215;28;20503;-78
2021/05/26 00:41:10;;;;;;;3.80;0.93;;;11.60;99.90;;;;;;5035005;28;20174;-79
2021/05/26 00:43:35;;;;;;;3.40;0.80;;;11.60;99.90;;;;;;5034924;28;20174;-79
2021/05/26 00:46:01;;;;;;;2.93;0.80;;;11.60;99.90;;;;;;5034424;28;20990;-79
2021/05/26 00:48:28;;;;;;;1.57;0.80;;;11.70;99.90;;;;;;5035121;28;20214;-79
2021/05/26 00:50:53;;;;;;;2.60;1.17;;;11.70;99.90;;;;;;5034226;28;20185;-79
2021/05/26 00:53:19;;;;;;;0.60;0.60;;;11.70;99.90;;;;;;5034692;28;20424;-80
2021/05/26 00:55:45;;;;;;;1.90;0.70;;;11.70;99.90;;;;;;5034851;28;20651;-79
2021/05/26 00:58:13;;;;;;;1.67;0.77;;;11.70;99.90;;;;;;5016738;28;20209;-79
2021/05/26 01:00:41;;;;;;;1.23;0.77;;;11.70;99.90;;;;;;5034367;28;20174;-79
2021/05/26 01:03:07;;;;;;;0.70;0.60;;;11.70;99.90;;;;;;5034450;28;20503;-79
2021/05/26 01:05:33;;;;;;;2.20;1.00;;;11.70;99.90;;;;;;5016998;28;20944;-79
2021/05/26 01:07:59;;;;;;;1.13;0.80;;;11.70;99.90;;;;;;5016942;28;20472;-78
2021/05/26 01:10:27;;;;;;;1.43;0.83;;;11.70;99.90;;;;;;5034317;28;20404;-78
2021/05/26 01:12:54;;;;;;;1.33;0.70;;;11.70;99.90;;;;;;5034511;28;20263;-78
2021/05/26 01:15:20;;;;;;;1.53;0.80;;;11.70;99.90;;;;;;5034633;28;20500;-79
2021/05/26 01:17:46;;;;;;;2.13;1.00;;;11.70;99.90;;;;;;5034842;28;20760;-78
2021/05/26 01:20:27;;;;;;;4.53;1.37;;;11.70;99.90;;;;;;5034605;28;20498;-78
2021/05/26 01:22:53;;;;;;;1.43;1.03;;;11.70;99.90;;;;;;5034339;28;20607;-79
2021/05/26 01:25:20;;;;;;;3.03;2.40;;;11.60;99.90;;;;;;5016536;28;20425;-79
2021/05/26 01:27:45;;;;;;;1.73;0.80;;;11.60;99.90;;;;;;5016852;28;20476;-79
2021/05/26 01:30:12;;;;;;;1.90;0.60;;;11.60;99.90;;;;;;5034492;28;20913;-79
2021/05/26 01:32:48;;;;;;;2.80;0.90;;;11.60;99.90;;;;;;5034483;28;20182;-79
2021/05/26 01:35:15;;;;;;;1.33;0.70;;;11.50;99.90;;;;;;5016246;28;20468;-78
2021/05/26 01:37:43;;;;;;;3.63;0.83;;;11.50;99.90;;;;;;5033715;28;20431;-79
2021/05/26 01:40:10;;;;;;;1.53;0.87;;;11.50;99.90;;;;;;5034056;28;20420;-79
2021/05/26 01:42:37;;;;;;;0.80;0.60;;;11.40;99.90;;;;;;5033961;28;20413;-78
2021/05/26 01:45:05;;;;;;;2.10;0.60;;;11.40;99.90;;;;;;5033543;28;20420;-79
2021/05/26 01:47:31;;;;;;;1.70;0.70;;;11.30;99.90;;;;;;5033629;28;20521;-79
2021/05/26 01:49:57;;;;;;;1.47;0.60;;;11.30;99.90;;;;;;5033189;28;20925;-79
2021/05/26 01:52:23;;;;;;;3.27;0.90;;;11.30;99.90;;;;;;5033464;28;20186;-79
2021/05/26 01:54:49;;;;;;;1.33;0.83;;;11.20;99.90;;;;;;5015296;28;20201;-79
2021/05/26 01:57:14;;;;;;;2.27;0.90;;;11.20;99.90;;;;;;5033550;28;20502;-79
2021/05/26 01:59:40;;;;;;;1.27;0.93;;;11.10;99.90;;;;;;5034039;28;20188;-79
2021/05/26 02:02:06;;;;;;;2.10;0.97;;;11.10;99.90;;;;;;5033111;28;20185;-78
2021/05/26 02:04:32;;;;;;;3.87;1.53;;;11.20;99.90;;;;;;5015885;28;20571;-79
2021/05/26 02:07:11;;;;;;;5.43;0.80;;;11.10;99.90;;;;;;5033282;28;20209;-79
2021/05/26 02:09:37;;;;;;;4.73;0.70;;;11.10;99.90;;;;;;5033754;28;20883;-79
2021/05/26 02:12:23;;;;;;;1.00;0.80;;;11.00;99.90;;;;;;5015569;28;20786;-78
2021/05/26 02:14:51;;;;;;;3.47;0.87;;;11.00;99.90;;;;;;5033365;28;20525;-79
2021/05/26 02:17:17;;;;;;;2.97;0.80;;;11.00;99.90;;;;;;5033413;28;20452;-79
2021/05/26 02:19:43;;;;;;;1.47;0.60;;;11.00;99.90;;;;;;5033255;28;20432;-79
2021/05/26 02:22:09;;;;;;;3.83;0.80;;;10.90;99.90;;;;;;5033258;28;20492;-79
2021/05/26 02:24:34;;;;;;;1.83;0.60;;;11.00;99.90;;;;;;5015923;28;20187;-79
2021/05/26 02:27:00;;;;;;;3.50;0.83;;;10.90;99.90;;;;;;5033136;28;20217;-79
2021/05/26 02:29:26;;;;;;;1.73;0.60;;;10.90;99.90;;;;;;5033983;28;20263;-79
2021/05/26 02:31:51;;;;;;;3.50;0.67;;;10.90;99.90;;;;;;5033375;28;20178;-79
2021/05/26 02:34:17;;;;;;;0.73;0.70;;;10.90;99.90;;;;;;5033365;28;20259;-79
2021/05/26 02:36:43;;;;;;;1.33;0.73;;;10.90;99.90;;;;;;5033191;28;20275;-79
2021/05/26 02:39:09;;;;;;;1.30;0.70;;;10.80;99.90;;;;;;5015277;28;20704;-79
2021/05/26 02:41:34;;;;;;;1.73;0.80;;;10.90;99.90;;;;;;5032938;28;20434;-79
2021/05/26 02:44:00;;;;;;;1.17;0.87;;;10.80;99.90;;;;;;5032922;28;20497;-79
2021/05/26 02:46:26;;;;;;;3.53;0.70;;;10.80;99.90;;;;;;5032956;28;20181;-79
2021/05/26 02:48:52;;;;;;;0.87;0.70;;;10.80;99.90;;;;;;5033175;28;20258;-79
2021/05/26 02:51:18;;;;;;;3.13;0.70;;;10.70;99.90;;;;;;5031714;28;20833;-78
2021/05/26 02:53:43;;;;;;;2.33;0.80;;;10.70;99.90;;;;;;5014665;28;20238;-79
2021/05/26 02:56:10;;;;;;;5.03;1.13;;;10.70;99.90;;;;;;5031970;28;20863;-79
2021/05/26 02:58:36;;;;;;;4.40;1.10;;;10.70;99.90;;;;;;5032816;28;20680;-79
2021/05/26 03:01:01;;;;;;;3.53;1.00;;;10.70;99.90;;;;;;5032433;28;20513;-79
2021/05/26 03:03:27;;;;;;;2.60;0.83;;;10.70;99.90;;;;;;5032499;28;20494;-79
2021/05/26 03:05:52;;;;;;;0.77;0.77;;;10.70;99.90;;;;;;5032549;28;20181;-77
2021/05/26 03:08:18;;;;;;;0.70;0.70;;;10.60;99.90;;;;;;5031825;28;20212;-79
2021/05/26 03:10:44;;;;;;;4.10;0.70;;;10.60;99.90;;;;;;5032724;28;20235;-79
2021/05/26 03:13:09;;;;;;;1.47;0.63;;;10.50;99.90;;;;;;5032041;28;20186;-79
2021/05/26 03:15:35;;;;;;;2.37;0.80;;;10.50;99.90;;;;;;5032629;28;21052;-78
2021/05/26 03:18:00;;;;;;;1.23;0.80;;;10.50;99.90;;;;;;5032576;28;20206;-78
2021/05/26 03:20:26;;;;;;;1.73;0.80;;;10.40;99.90;;;;;;5032655;28;20216;-80
2021/05/26 03:22:51;;;;;;;2.40;0.90;;;10.40;99.90;;;;;;5031952;28;20177;-79
2021/05/26 03:25:17;;;;;;;1.20;0.63;;;10.40;99.90;;;;;;5031961;28;20191;-79
2021/05/26 03:27:43;;;;;;;3.53;1.30;;;10.40;99.90;;;;;;5032039;28;20208;-79
2021/05/26 03:30:11;;;;;;;5.13;1.10;;;10.40;99.90;;;;;;5031966;28;20228;-79
2021/05/26 03:32:38;;;;;;;1.73;0.90;;;10.40;99.90;;;;;;5031842;28;20242;-79
2021/05/26 03:35:04;;;;;;;2.43;0.97;;;10.40;99.90;;;;;;5031517;28;20926;-79
2021/05/26 03:37:30;;;;;;;2.50;0.90;;;10.40;99.90;;;;;;5032174;28;20443;-79
2021/05/26 03:39:56;;;;;;;2.97;1.10;;;10.40;99.90;;;;;;5014070;28;20516;-79
2021/05/26 03:42:21;;;;;;;1.30;1.00;;;10.40;99.90;;;;;;5031857;28;20188;-79
2021/05/26 03:44:47;;;;;;;3.90;1.17;;;10.40;99.90;;;;;;5031804;28;20180;-79
2021/05/26 03:47:13;;;;;;;4.70;1.93;;;10.40;99.90;;;;;;5031313;28;20225;-79
2021/05/26 03:49:38;;;;;;;2.40;0.93;;;10.40;99.90;;;;;;5031862;28;20262;-79
2021/05/26 03:52:04;;;;;;;3.47;0.80;;;10.40;99.90;;;;;;5031323;28;20177;-80
2021/05/26 03:54:30;;;;;;;3.40;0.90;;;10.50;99.90;;;;;;5031692;28;20672;-79
2021/05/26 03:56:55;;;;;;;1.90;0.70;;;10.50;99.90;;;;;;5031457;28;20455;-79
2021/05/26 03:59:21;;;;;;;1.70;0.93;;;10.40;99.90;;;;;;5031181;28;20555;-78
2021/05/26 04:01:46;;;;;;;2.80;0.80;;;10.50;99.90;;;;;;5031141;28;20202;-79
2021/05/26 04:04:13;;;;;;;3.17;1.17;;;10.50;99.90;;;;;;5013326;28;20204;-79
2021/05/26 04:06:38;;;;;;;2.10;0.70;;;10.60;99.90;;;;;;5013660;28;20216;-78
2021/05/26 04:09:04;;;;;;;4.83;1.10;;;10.60;99.90;;;;;;5031322;28;20438;-79
2021/05/26 04:11:30;;;;;;;3.30;0.90;;;10.60;99.90;;;;;;5013644;28;20177;-78
2021/05/26 04:13:56;;;;;;;3.63;1.27;;;10.60;99.90;;;;;;5030653;28;20176;-76
2021/05/26 04:16:21;;;;;;;2.00;1.07;;;10.60;99.90;;;;;;5013330;28;20264;-76
2021/05/26 04:18:47;;;;;;;2.87;0.90;;;10.60;99.90;;;;;;5031065;28;20177;-76
2021/05/26 04:21:12;;;;;;;4.53;0.83;;;10.60;99.90;;;;;;5030817;28;20235;-76
2021/05/26 04:23:38;;;;;;;0.97;0.87;;;10.70;99.90;;;;;;5030926;28;20178;-76
2021/05/26 04:26:03;;;;;;;1.83;0.80;;;10.70;99.90;;;;;;5013372;28;20729;-76
2021/05/26 04:28:29;;;;;;;1.97;1.00;;;10.80;99.90;;;;;;5030759;28;20219;-76
2021/05/26 04:30:55;;;;;;;3.40;0.80;;;10.80;99.90;;;;;;5030679;28;20191;-76
2021/05/26 04:33:20;;;;;;;1.80;0.93;;;10.80;99.90;;;;;;5030890;28;20434;-76
2021/05/26 04:35:46;;;;;;;2.77;0.90;;;10.70;99.90;;;;;;5030964;28;20180;-76
2021/05/26 04:38:12;;;;;;;2.93;0.90;;;10.70;99.90;;;;;;5030906;28;20195;-76
2021/05/26 04:40:38;;;;;;;1.60;1.47;;;10.70;99.90;;;;;;5031048;28;20406;-76
2021/05/26 04:43:04;;;;;;;2.70;0.90;;;10.70;99.90;;;;;;5030576;28;20428;-77
2021/05/26 04:45:30;;;;;;;9.70;1.33;;;10.70;99.90;;;;;;5015108;28;20176;-77
2021/05/26 04:47:55;;;;;;;2.77;1.27;;;10.60;99.90;;;;;;5034553;28;20472;-77
2021/05/26 04:50:21;;;;;;;1.00;0.90;;;10.60;99.90;;;;;;5034367;28;20185;-76
2021/05/26 04:52:47;;;;;;;4.90;1.03;;;10.60;99.90;;;;;;5034539;28;20168;-76
2021/05/26 04:55:12;;;;;;;4.43;1.20;;;10.50;99.90;;;;;;5034196;28;20563;-76
2021/05/26 04:57:38;;;;;;;3.93;1.20;;;10.50;99.90;;;;;;5033946;28;20617;-76
2021/05/26 05:00:05;;;;;;;2.20;0.90;;;10.50;99.90;;;;;;5034278;28;20206;-74
2021/05/26 05:02:31;;;;;;;3.63;1.10;;;10.50;99.90;;;;;;5016346;28;20184;-72
2021/05/26 05:04:57;;;;;;;1.17;0.83;;;10.50;99.90;;;;;;5016141;28;20507;-73
2021/05/26 05:07:22;;;;;;;1.47;0.87;;;10.50;99.90;;;;;;5016179;28;20644;-73
2021/05/26 05:09:48;;;;;;;1.80;0.97;;;10.50;99.90;;;;;;5034335;28;20202;-74
2021/05/26 05:12:13;;;;;;;1.10;1.00;;;10.50;99.90;;;;;;5033272;28;20560;-73
2021/05/26 05:14:39;;;;;;;2.23;0.80;;;10.50;99.90;;;;;;5033605;28;20188;-74
2021/05/26 05:17:04;;;;;;;4.23;1.00;;;10.50;99.90;;;;;;5033567;28;20216;-74
2021/05/26 05:19:30;;;;;;;2.27;0.90;;;10.60;99.90;;;;;;5033973;28;20620;-73
2021/05/26 05:21:55;;;;;;;3.03;0.70;;;10.50;99.90;;;;;;5033427;28;20242;-74
2021/05/26 05:24:21;;;;;;;1.33;1.17;;;10.50;99.90;;;;;;5033143;28;20658;-73
2021/05/26 05:26:46;;;;;;;0.70;0.60;;;10.40;99.90;;;;;;5032239;28;20215;-73
2021/05/26 05:29:12;;;;;;;4.70;1.23;;;10.50;99.90;;;;;;5024145;28;20277;-73
2021/05/26 05:31:38;;;;;;;2.30;0.90;;;10.40;99.90;;;;;;5022971;28;20186;-74
2021/05/26 05:34:03;;;;;;;1.43;0.80;;;10.40;99.90;;;;;;5019823;28;20181;-73
2021/05/26 05:36:29;;;;;;;3.13;2.07;;;10.40;99.90;;;;;;5006507;28;20181;-74
2021/05/26 05:38:54;;;;;;;1.60;1.10;;;10.40;99.90;;;;;;5015087;28;20177;-74
2021/05/26 05:41:20;;;;;;;2.80;1.03;;;10.40;99.90;;;;;;5033066;28;20192;-73
2021/05/26 05:43:45;;;;;;;4.27;1.13;;;10.40;99.90;;;;;;5033156;28;20255;-73
2021/05/26 05:46:11;;;;;;;2.13;0.90;;;10.50;99.90;;;;;;5033112;28;20184;-73
2021/05/26 05:48:37;;;;;;;2.80;0.90;;;10.50;99.90;;;;;;5033269;28;20207;-74
2021/05/26 05:51:03;;;;;;;2.93;1.43;;;10.40;99.90;;;;;;5032722;28;20191;-75
2021/05/26 05:53:29;;;;;;;6.00;1.13;;;10.40;99.90;;;;;;5033234;28;20484;-74
2021/05/26 05:55:57;;;;;;;3.80;0.90;;;10.40;99.90;;;;;;5032343;28;20693;-73
2021/05/26 05:58:26;;;;;;;7.37;1.60;;;10.40;99.90;;;;;;5033299;28;20192;-73
2021/05/26 06:00:52;;;;;;;0.97;0.93;;;10.40;99.90;;;;;;5032683;28;20422;-75
2021/05/26 06:03:18;;;;;;;2.97;1.00;;;10.30;99.90;;;;;;5032296;28;20433;-73
2021/05/26 06:05:44;;;;;;;5.10;1.13;;;10.30;99.90;;;;;;5014535;28;20423;-73
2021/05/26 06:08:09;;;;;;;2.43;1.10;;;10.30;99.90;;;;;;5032706;28;20224;-74
2021/05/26 06:10:35;;;;;;;2.30;1.00;;;10.40;99.90;;;;;;5029128;28;20286;-74
2021/05/26 06:13:03;;;;;;;1.43;1.07;;;10.40;99.90;;;;;;5027119;28;20197;-76
2021/05/26 06:15:28;;;;;;;2.70;1.27;;;10.40;99.90;;;;;;5013139;28;20182;-75
2021/05/26 06:17:57;;;;;;;3.00;1.00;;;10.40;99.90;;;;;;5012145;28;20451;-73
2021/05/26 06:20:23;;;;;;;4.73;1.03;;;10.40;99.90;;;;;;5032239;28;20177;-74
2021/05/26 06:22:48;;;;;;;7.60;1.33;;;10.40;99.90;;;;;;5032572;28;20559;-74
2021/05/26 06:25:14;;;;;;;3.40;1.10;;;10.50;99.90;;;;;;5032090;28;20186;-74
2021/05/26 06:27:40;;;;;;;5.40;1.37;;;10.50;99.90;;;;;;5029398;28;20284;-73
2021/05/26 06:30:06;;;;;;;2.70;1.33;;;10.60;99.90;;;;;;5032565;28;20172;-73
2021/05/26 06:32:31;;;;;;;2.60;1.50;;;10.50;99.90;;;;;;5031701;28;20247;-75
2021/05/26 06:34:57;;;;;;;4.13;1.30;;;10.60;99.90;;;;;;5032202;28;20406;-74
2021/05/26 06:37:22;;;;;;;2.40;1.07;;;10.60;99.90;;;;;;5032147;28;20203;-73
2021/05/26 06:39:48;;;;;;;3.47;1.30;;;10.60;99.90;;;;;;5032117;28;20187;-75
2021/05/26 06:42:13;;;;;;;2.13;1.47;;;10.60;99.90;;;;;;5031480;28;20189;-74
2021/05/26 06:44:39;;;;;;;1.53;1.10;;;10.70;99.90;;;;;;5031661;28;20182;-74
2021/05/26 06:47:04;;;;;;;2.20;1.20;;;10.80;99.90;;;;;;5031563;28;20201;-74
2021/05/26 06:49:31;;;;;;;3.50;1.47;;;10.70;99.90;;;;;;5013895;28;20192;-74
2021/05/26 06:51:57;;;;;;;3.67;1.47;;;10.70;99.90;;;;;;5031730;28;20200;-74
2021/05/26 06:54:22;;;;;;;2.77;1.23;;;10.80;99.90;;;;;;5027724;28;20925;-74
2021/05/26 06:56:48;;;;;;;2.30;1.20;;;10.90;99.90;;;;;;5031873;28;20725;-75
2021/05/26 06:59:14;;;;;;;1.40;1.30;;;11.00;99.90;;;;;;5031480;28;20551;-75
2021/05/26 07:01:40;;;;;;;2.87;1.70;;;11.20;99.90;;;;;;5031644;28;20182;-75
2021/05/26 07:04:06;;;;;;;4.10;1.00;;;11.30;99.90;;;;;;5011682;28;20454;-73
2021/05/26 07:06:31;;;;;;;6.33;1.57;;;11.30;99.90;;;;;;5029559;28;20262;-71
2021/05/26 07:08:57;;;;;;;2.30;1.87;;;11.30;99.90;;;;;;5031439;28;20217;-72
2021/05/26 07:11:22;;;;;;;3.53;1.43;;;11.30;99.90;;;;;;5031226;28;20233;-73
2021/05/26 07:13:48;;;;;;;2.23;1.03;;;11.30;99.90;;;;;;5031690;28;20618;-75
2021/05/26 07:16:13;;;;;;;3.57;1.27;;;11.30;99.90;;;;;;5031328;28;20236;-73
2021/05/26 07:18:42;;;;;;;4.53;1.33;;;11.40;99.90;;;;;;5031055;28;20364;-73
2021/05/26 07:21:08;;;;;;;3.33;0.93;;;11.40;99.90;;;;;;5031101;28;20268;-73
2021/05/26 07:23:34;;;;;;;3.23;1.10;;;11.40;99.90;;;;;;5031201;28;20868;-73
2021/05/26 07:25:59;;;;;;;7.23;1.40;;;11.40;99.90;;;;;;5030611;28;20192;-73
2021/05/26 07:28:25;;;;;;;4.63;1.33;;;11.50;99.90;;;;;;5013343;28;20217;-73
2021/05/26 07:30:50;;;;;;;3.00;1.23;;;11.60;99.90;;;;;;5031114;28;20170;-73
2021/05/26 07:33:16;;;;;;;2.00;1.60;;;11.60;99.90;;;;;;5031050;28;20174;-73
2021/05/26 07:35:41;;;;;;;2.90;1.00;;;11.60;99.90;;;;;;5008237;28;20193;-71
2021/05/26 07:38:07;;;;;;;2.80;0.90;;;11.50;99.90;;;;;;5015697;28;20256;-73
2021/05/26 07:40:32;;;;;;;2.10;1.03;;;11.60;99.90;;;;;;5030294;28;20185;-73
2021/05/26 07:42:58;;;;;;;5.50;1.30;;;11.70;99.90;;;;;;5021092;28;20182;-73
2021/05/26 07:45:24;;;;;;;6.37;1.13;;;11.70;99.90;;;;;;5019780;28;20232;-73
2021/05/26 07:47:49;;;;;;;3.27;1.07;;;11.60;99.90;;;;;;5021125;28;20212;-73
2021/05/26 07:50:15;;;;;;;2.23;1.30;;;11.50;99.90;;;;;;5013171;28;20585;-71
2021/05/26 07:52:40;;;;;;;7.00;1.73;;;11.50;99.90;;;;;;5031157;28;20177;-73
2021/05/26 07:55:07;;;;;;;3.63;1.23;;;11.50;99.90;;;;;;5030580;28;20663;-73
2021/05/26 07:57:32;;;;;;;3.13;1.63;;;11.50;99.90;;;;;;5031771;28;20193;-73
2021/05/26 07:59:58;;;;;;;2.93;1.40;;;11.60;99.90;;;;;;5029754;28;20443;-73
2021/05/26 08:02:23;;;;;;;2.33;1.17;;;11.50;99.90;;;;;;5030980;28;20184;-72
2021/05/26 08:04:49;;;;;;;4.40;2.10;;;11.40;99.90;;;;;;5030843;28;20635;-74
2021/05/26 08:07:15;;;;;;;3.07;1.30;;;11.50;99.90;;;;;;5031465;28;20296;-73
2021/05/26 08:09:40;;;;;;;6.67;1.73;;;11.60;99.90;;;;;;5012611;28;20170;-73
2021/05/26 08:12:12;;;;;;;6.43;1.50;;;11.60;99.90;;;;;;5012829;28;20181;-74
2021/05/26 08:14:38;;;;;;;4.67;1.40;;;11.60;99.90;;;;;;5019853;28;20268;-73
2021/05/26 08:17:05;;;;;;;12.27;2.23;;;11.60;99.90;;;;;;5030673;28;20952;-73
2021/05/26 08:19:30;;;;;;;9.23;2.40;;;11.60;99.90;;;;;;5031110;28;20437;-74
2021/05/26 08:21:56;;;;;;;3.10;1.30;;;11.60;99.90;;;;;;5034083;28;20894;-74
2021/05/26 08:24:22;;;;;;;2.83;1.37;;;11.70;99.90;;;;;;5034832;28;20181;-75
2021/05/26 08:26:49;;;;;;;4.20;1.40;;;11.70;99.90;;;;;;5033589;28;20580;-74
2021/05/26 08:29:15;;;;;;;1.97;1.10;;;11.60;99.90;;;;;;5034602;28;20191;-74
2021/05/26 08:31:42;;;;;;;1.43;1.20;;;11.60;99.90;;;;;;5034238;28;20514;-73
2021/05/26 08:34:07;;;;;;;4.00;1.57;;;11.70;99.90;;;;;;5034429;28;20412;-75
2021/05/26 08:36:33;;;;;;;3.67;1.23;;;11.60;99.90;;;;;;5034056;28;20778;-73
2021/05/26 08:38:58;;;;;;;1.60;1.07;;;11.70;99.90;;;;;;5014788;28;20169;-72
2021/05/26 08:41:25;;;;;;;3.57;1.30;;;11.60;99.90;;;;;;5032529;28;20311;-73
2021/05/26 08:43:50;;;;;;;4.37;1.00;;;11.70;99.90;;;;;;5016414;28;20325;-72
2021/05/26 08:46:17;;;;;;;5.10;1.40;;;11.70;99.90;;;;;;5034036;28;20420;-73
2021/05/26 08:48:44;;;;;;;3.40;1.57;;;11.70;99.90;;;;;;5034455;28;20295;-75
2021/05/26 08:51:14;;;;;;;6.00;1.63;;;11.80;99.90;;;;;;5034059;28;20440;-74
2021/05/26 08:53:40;;;;;;;3.53;1.30;;;11.80;99.90;;;;;;5034133;28;20427;-71
2021/05/26 08:56:06;;;;;;;3.70;1.60;;;11.80;99.90;;;;;;5034021;28;20442;-72
2021/05/26 08:58:41;;;;;;;10.00;1.60;;;11.80;99.90;;;;;;5034198;28;20425;-72
2021/05/26 09:01:07;;;;;;;8.03;1.10;;;11.70;99.90;;;;;;5033524;28;20679;-71
2021/05/26 09:03:34;;;;;;;5.07;1.50;;;11.70;99.90;;;;;;5034208;28;20476;-72
2021/05/26 09:06:00;;;;;;;3.40;0.83;;;11.60;99.90;;;;;;5034151;28;20219;-72
2021/05/26 09:08:26;;;;;;;5.67;1.30;;;11.70;99.90;;;;;;5033887;28;20504;-72
2021/05/26 09:10:56;;;;;;;4.07;1.43;;;11.70;99.90;;;;;;5033785;28;20413;-70
2021/05/26 09:13:32;;;;;;;2.50;1.33;;;11.90;99.90;;;;;;5033333;28;20174;-73
2021/05/26 09:15:58;;;;;;;5.10;1.13;;;11.90;99.90;;;;;;5033676;28;20408;-72
2021/05/26 09:18:24;;;;;;;3.63;1.00;;;12.00;99.90;;;;;;5016084;28;20436;-72
2021/05/26 09:20:50;;;;;;;2.93;1.30;;;12.10;99.90;;;;;;5033637;28;20411;-72
2021/05/26 09:23:26;;;;;;;4.83;1.70;;;11.90;99.90;;;;;;5033295;28;20226;-72
2021/05/26 09:25:57;;;;;;;2.53;1.10;;;11.90;99.90;;;;;;5033353;28;20411;-72
2021/05/26 09:28:33;;;;;;;3.77;1.10;;;12.00;99.90;;;;;;5033706;28;20522;-73
2021/05/26 09:31:04;;;;;;;2.63;1.50;;;11.90;99.90;;;;;;5032201;28;20876;-72
2021/05/26 09:33:45;;;;;;;3.00;1.37;;;12.00;99.90;;;;;;5024450;28;20424;-72
2021/05/26 09:36:14;;;;;;;4.77;1.10;;;12.00;99.90;;;;;;5032854;28;20479;-71
2021/05/26 09:39:03;;;;;;;5.90;2.43;;;12.00;99.90;;;;;;5033532;28;20432;-73
2021/05/26 09:41:33;;;;;;;3.00;1.50;;;11.90;99.90;;;;;;5033270;28;20426;-72
2021/05/26 09:44:10;;;;;;;6.40;1.00;;;12.00;99.90;;;;;;5015469;28;20813;-73
2021/05/26 09:46:37;;;;;;;3.80;1.30;;;12.10;99.90;;;;;;5032792;28;20761;-71
2021/05/26 09:49:09;;;;;;;1.70;1.03;;;12.10;99.90;;;;;;5032809;28;20516;-72
2021/05/26 09:51:37;;;;;;;3.10;1.17;;;12.20;99.90;;;;;;5033058;28;20520;-72
2021/05/26 09:54:17;;;;;;;2.33;1.33;;;12.10;99.90;;;;;;5032846;28;20836;-72
2021/05/26 09:56:45;;;;;;;3.50;1.50;;;12.10;99.90;;;;;;5033020;28;20466;-72
2021/05/26 09:59:11;;;;;;;3.27;1.20;;;12.10;99.90;;;;;;5033571;28;20412;-72
2021/05/26 10:01:38;;;;;;;2.67;1.10;;;12.20;99.90;;;;;;5032995;28;20444;-72
2021/05/26 10:04:04;;;;;;;4.67;1.27;;;12.20;99.90;;;;;;5032297;28;20428;-71
2021/05/26 10:06:31;;;;;;;3.40;1.03;;;12.30;99.90;;;;;;5032647;28;20416;-72
2021/05/26 10:08:57;;;;;;;1.70;1.10;;;12.40;99.90;;;;;;5032638;28;20428;-71
2021/05/26 10:11:28;;;;;;;2.50;0.83;;;12.40;99.90;;;;;;5032568;28;20783;-72
2021/05/26 10:13:55;;;;;;;1.10;0.70;;;12.50;99.90;;;;;;5026783;28;20424;-72
2021/05/26 10:16:22;;;;;;;2.27;0.77;;;12.60;99.90;;;;;;5032338;28;20451;-72
2021/05/26 10:18:49;;;;;;;2.00;0.93;;;12.50;99.90;;;;;;5032072;28;20776;-72
2021/05/26 10:21:19;;;;;;;2.50;0.80;;;12.50;99.90;;;;;;5014912;28;20776;-72
2021/05/26 10:23:45;;;;;;;2.27;0.67;;;12.60;99.90;;;;;;5032727;28;20408;-72
2021/05/26 10:26:11;;;;;;;1.37;0.77;;;12.60;99.90;;;;;;5014382;28;21265;-71
2021/05/26 10:28:36;;;;;;;3.47;1.23;;;12.70;99.90;;;;;;5032025;28;20214;-73
2021/05/26 10:31:05;;;;;;;1.97;0.70;;;12.70;99.90;;;;;;5031996;28;20540;-73
2021/05/26 10:33:39;;;;;;;6.23;0.83;;;12.70;99.90;;;;;;5032223;28;20170;-73
2021/05/26 10:36:08;;;;;;;2.40;0.60;;;12.70;99.90;;;;;;5031983;28;20925;-72
2021/05/26 10:38:59;;;;;;;1.27;0.73;;;12.90;99.90;;;;;;5021466;28;20999;-71
2021/05/26 10:41:50;;;;;;;0.80;0.53;;;13.00;99.90;;;;;;5031841;28;20480;-72
2021/05/26 10:44:16;;;;;;;0.53;0.50;;;12.90;99.90;;;;;;5031349;28;20512;-72
2021/05/26 10:46:43;;;;;;;0.50;0.50;;;12.80;99.90;;;;;;5030584;28;22143;-71
2021/05/26 10:49:11;;;;;;;3.90;0.80;;;12.90;99.90;;;;;;5031502;28;20207;-73
2021/05/26 10:51:52;;;;;;;1.23;0.60;;;13.00;99.90;;;;;;5032176;28;20467;-72
2021/05/26 10:54:39;;;;;;;1.53;0.60;;;13.10;99.90;;;;;;5014661;28;20814;-74
2021/05/26 10:57:07;;;;;;;1.47;0.67;;;13.10;99.90;;;;;;5032190;28;20503;-71
2021/05/26 10:59:33;;;;;;;1.90;0.50;;;13.20;99.90;;;;;;5014849;28;20431;-72
2021/05/26 11:02:08;;;;;;;1.23;0.60;;;13.40;99.90;;;;;;5032114;28;20922;-72
2021/05/26 11:04:39;;;;;;;3.47;0.80;;;13.60;99.90;;;;;;5031929;28;20857;-71
2021/05/26 11:07:35;;;;;;;1.33;0.53;;;13.60;99.90;;;;;;5031529;28;20460;-73
2021/05/26 11:10:03;;;;;;;3.30;0.70;;;13.50;99.90;;;;;;5013869;28;20845;-72
2021/05/26 11:12:54;;;;;;;4.00;0.67;;;13.50;99.90;;;;;;5012632;28;20454;-72
2021/05/26 11:15:39;;;;;;;1.93;0.67;;;13.50;99.90;;;;;;5031232;28;20421;-71
2021/05/26 11:18:14;;;;;;;1.73;0.60;;;13.50;99.90;;;;;;5031112;28;20547;-73
2021/05/26 11:20:40;;;;;;;0.50;0.50;;;13.40;99.90;;;;;;5031749;28;20828;-72
2021/05/26 11:23:13;;;;;;;0.60;0.60;;;13.30;99.90;;;;;;5031182;28;20412;-71
2021/05/26 11:25:48;;;;;;;0.70;0.60;;;13.20;99.90;;;;;;5031703;28;20182;-72
2021/05/26 11:28:31;;;;;;;0.60;0.40;;;13.10;99.90;;;;;;5031382;28;20468;-72
2021/05/26 11:31:04;;;;;;;1.40;0.60;;;13.20;99.90;;;;;;5013053;28;20417;-71
2021/05/26 11:33:30;;;;;;;0.60;0.50;;;13.20;99.90;;;;;;5031303;28;20482;-72
2021/05/26 11:36:02;;;;;;;1.53;0.73;;;13.10;99.90;;;;;;5030967;28;20432;-72
2021/05/26 11:38:28;;;;;;;2.60;0.60;;;13.10;99.90;;;;;;5031522;28;20512;-72
2021/05/26 11:40:54;;;;;;;0.97;0.70;;;13.10;99.90;;;;;;5031064;28;20420;-71
2021/05/26 11:43:23;;;;;;;2.33;0.70;;;13.10;99.90;;;;;;5030858;28;20443;-71
2021/05/26 11:46:02;;;;;;;0.63;0.60;;;13.10;99.90;;;;;;5013150;28;20185;-72
2021/05/26 11:48:27;;;;;;;3.40;0.70;;;13.00;99.90;;;;;;5018479;28;20463;-72
2021/05/26 11:50:53;;;;;;;1.30;0.57;;;12.90;99.90;;;;;;5031640;28;20524;-73
2021/05/26 11:53:18;;;;;;;0.60;0.60;;;13.10;99.90;;;;;;5031087;28;20681;-73
2021/05/26 11:55:45;;;;;;;1.10;0.60;;;13.20;99.90;;;;;;5030053;28;20217;-73
2021/05/26 11:58:11;;;;;;;1.10;0.70;;;13.40;99.90;;;;;;5030948;28;20201;-73
2021/05/26 12:00:37;;;;;;;0.60;0.50;;;13.50;99.90;;;;;;5030173;28;20435;-73
2021/05/26 12:03:04;;;;;;;0.80;0.50;;;13.60;99.90;;;;;;5012633;28;20254;-73
2021/05/26 12:05:47;;;;;;;1.63;0.67;;;13.60;99.90;;;;;;5030802;28;20484;-73
2021/05/26 12:08:19;;;;;;;1.43;0.60;;;13.70;99.90;;;;;;5030979;28;20468;-73
2021/05/26 12:10:47;;;;;;;3.20;0.80;;;13.80;99.90;;;;;;5031260;28;20417;-73
2021/05/26 12:13:16;;;;;;;0.60;0.50;;;13.90;99.90;;;;;;5030766;28;20423;-73
2021/05/26 12:15:41;;;;;;;2.30;0.90;;;14.00;99.90;;;;;;5013403;28;20409;-73
2021/05/26 12:18:08;;;;;;;0.83;0.83;;;14.30;99.90;;;;;;5030312;28;20449;-73
2021/05/26 12:20:33;;;;;;;0.87;0.40;;;14.30;99.90;;;;;;5030865;28;20205;-73
2021/05/26 12:23:00;;;;;;;1.00;0.60;;;14.30;99.90;;;;;;5030605;28;20506;-74
2021/05/26 12:25:36;;;;;;;1.50;0.50;;;14.50;99.90;;;;;;5031005;28;20185;-73
2021/05/26 12:28:19;;;;;;;0.93;0.60;;;14.90;99.90;;;;;;5030651;28;20464;-73
2021/05/26 12:30:46;;;;;;;1.57;0.50;;;15.00;99.90;;;;;;5030970;28;20415;-73
2021/05/26 12:33:13;;;;;;;1.47;0.60;;;15.20;99.90;;;;;;5030698;28;20504;-73
2021/05/26 12:35:39;;;;;;;1.70;0.73;;;15.30;99.90;;;;;;5030459;28;20424;-73
2021/05/26 12:38:20;;;;;;;0.60;0.60;;;15.40;99.90;;;;;;5030799;28;20863;-73
2021/05/26 12:40:48;;;;;;;2.70;0.60;;;15.40;99.90;;;;;;5030723;28;20186;-73
2021/05/26 12:43:31;;;;;;;1.57;0.50;;;15.50;99.90;;;;;;5030397;28;20450;-73
2021/05/26 12:45:58;;;;;;;0.93;0.50;;;15.30;99.90;;;;;;5030546;28;20413;-73
2021/05/26 12:48:29;;;;;;;2.20;0.60;;;15.20;99.90;;;;;;5027567;28;20496;-76
2021/05/26 12:51:00;;;;;;;1.00;0.70;;;14.90;99.90;;;;;;5022553;28;20429;-73